Fish Lake Valley, Nevada Weather observations

Data are for 10 minute period ending at time listed.
 Day   Time    Ave.   Ave.  Ave.  Vector   Max.   Stn.    Total    Solar   Ave.  
  of    of     Air    Rel.  Wind   Wind    Wind   Baro.  Precip.   Rad.    Soil  
Year   Day     Temp.  Hum.  Speed  Dir.    Gust   Pres.                    Temp. 
2014   (PST)    F      %     mph   deg.    mph     mb.     in.     W/m2     F    
--------------------------------------------------------------------------------- 
 211    0:00   66.9    68    2.7   324      9.7   857.0    0.00       0    80.2  
 211    1:00   64.5    69    1.7   149      5.2   857.0    0.00       0    79.6  
 211    2:00   63.2    73    3.4   172      8.0   857.0    0.00       0    79.0  
 211    3:00   63.1    71    1.9   177      3.8   857.0    0.00       0    78.3  
 211    4:00   60.8    76    2.1   180      5.7   857.0    0.00       0    77.7  
 211    5:00   60.3    79    2.2   178      5.3   857.0    0.00       2    77.0  
 211    6:00   62.1    75    2.7   236      6.9   857.0    0.00      73    76.4  
 211    7:00   65.8    66    3.5   335      7.2   858.0    0.00     149    75.7  
 211    8:00   68.9    60    1.5   289      4.1   858.0    0.00     159    75.2  
 211    9:00   73.7    47    4.8   292      9.8   858.0    0.00     216    74.8  
 211   10:00   77.4    35    6.5   286     10.1   858.0    0.00     346    74.5  
 211   11:00   81.9    32    4.1   309     10.9   858.0    0.00     725    74.5  
 211   12:00   83.8    29    8.6   301     15.2   857.0    0.00     778    74.6  
 211   13:00   83.6    26   10.3   285     16.5   857.0    0.00     192    75.1  
 211   14:00   74.0    47   10.8   204     22.2   858.0    0.00      74    76.0  
 211   15:00   71.9    58    4.6    92     11.4   859.0    0.00     248    76.7  
 211   16:00   71.3    64    5.6   134     11.3   858.0    0.00     123    77.1  
 211   17:00   68.5    62   10.6   118     22.1   858.0    0.00      96    77.3  
 211   18:00   66.6    69    7.5   118     17.9   858.0    0.00     138    77.4  
 211   19:00   68.3    59    5.0   112     10.0   858.0    0.00      34    77.3  
 211   20:00   67.0    63    3.8   184     12.7   858.0    0.00       0    77.2  
 211   21:00   63.1    75    3.9   137      6.5   858.0    0.00       0    77.0  
 211   22:00   59.5    82    4.0   145      6.1   858.0    0.00       0    76.7  
 211   23:00   57.7    85    3.0   120      9.5   858.0    0.00       0    76.3  

Return to Fish Lake Valley, Nevada graphs page.


Western Regional Climate Center,wrcc@dri.edu